Map

Track Data

SID SEASON NUMBER BASIN SUBBASIN NAME ISO_TIME NATURE LAT LON WMO_WIND WMO_PRES WMO_AGENCY TRACK_TYPE DIST2LAND LANDFALL IFLAG USA_AGENCY USA_ATCF_ID USA_LAT USA_LON USA_RECORD USA_STATUS USA_WIND USA_PRES USA_SSHS USA_R34_NE USA_R34_SE USA_R34_SW USA_R34_NW USA_R50_NE USA_R50_SE USA_R50_SW USA_R50_NW USA_R64_NE USA_R64_SE USA_R64_SW USA_R64_NW USA_POCI USA_ROCI USA_RMW USA_EYE TOKYO_LAT TOKYO_LON TOKYO_GRADE TOKYO_WIND TOKYO_PRES TOKYO_R50_DIR TOKYO_R50_LONG TOKYO_R50_SHORT TOKYO_R30_DIR TOKYO_R30_LONG TOKYO_R30_SHORT TOKYO_LAND CMA_LAT CMA_LON CMA_CAT CMA_WIND CMA_PRES HKO_LAT HKO_LON HKO_CAT HKO_WIND HKO_PRES NEWDELHI_LAT NEWDELHI_LON NEWDELHI_GRADE NEWDELHI_WIND NEWDELHI_PRES NEWDELHI_CI NEWDELHI_DP NEWDELHI_POCI REUNION_LAT REUNION_LON REUNION_TYPE REUNION_WIND REUNION_PRES REUNION_TNUM REUNION_CI REUNION_RMW REUNION_R34_NE REUNION_R34_SE REUNION_R34_SW REUNION_R34_NW REUNION_R50_NE REUNION_R50_SE REUNION_R50_SW REUNION_R50_NW REUNION_R64_NE REUNION_R64_SE REUNION_R64_SW REUNION_R64_NW BOM_LAT BOM_LON BOM_TYPE BOM_WIND BOM_PRES BOM_TNUM BOM_CI BOM_RMW BOM_R34_NE BOM_R34_SE BOM_R34_SW BOM_R34_NW BOM_R50_NE BOM_R50_SE BOM_R50_SW BOM_R50_NW BOM_R64_NE BOM_R64_SE BOM_R64_SW BOM_R64_NW BOM_ROCI BOM_POCI BOM_EYE BOM_POS_METHOD BOM_PRES_METHOD NADI_LAT NADI_LON NADI_CAT NADI_WIND NADI_PRES WELLINGTON_LAT WELLINGTON_LON WELLINGTON_WIND WELLINGTON_PRES DS824_LAT DS824_LON DS824_STAGE DS824_WIND DS824_PRES TD9636_LAT TD9636_LON TD9636_STAGE TD9636_WIND TD9636_PRES TD9635_LAT TD9635_LON TD9635_WIND TD9635_PRES TD9635_ROCI NEUMANN_LAT NEUMANN_LON NEUMANN_CLASS NEUMANN_WIND NEUMANN_PRES MLC_LAT MLC_LON MLC_CLASS MLC_WIND MLC_PRES USA_GUST BOM_GUST BOM_GUST_PER REUNION_GUST REUNION_GUST_PER USA_SEAHGT USA_SEARAD_NE USA_SEARAD_SE USA_SEARAD_SW USA_SEARAD_NW STORM_SPEED STORM_DIR
2020179N12261 2020 34 EP MM NOT_NAMED 2020-06-27 00:00:00 NR 11.8000 -99.5000 PROVISIONAL 504 486 O_____________ nhc_working_bt EP042020 11.8000 -99.5000 DB 20 1007 -3 1008 200 90 16 301
2020179N12261 2020 34 EP MM NOT_NAMED 2020-06-27 03:00:00 NR 12.2104 -100.200 PROVISIONAL 490 474 P_____________ EP042020 12.2104 -100.200 DB 20 1007 -3 1008 200 90 16 300
2020179N12261 2020 34 EP MM NOT_NAMED 2020-06-27 06:00:00 NR 12.6000 -100.900 PROVISIONAL 476 463 O_____________ nhc_working_bt EP042020 12.6000 -100.900 DB 20 1007 -3 1008 200 90 16 299
2020179N12261 2020 34 EP MM NOT_NAMED 2020-06-27 09:00:00 NR 12.9573 -101.600 PROVISIONAL 461 461 P_____________ EP042020 12.9573 -101.600 DB 22 1007 -3 1008 200 90 15 297
2020179N12261 2020 34 EP MM NOT_NAMED 2020-06-27 12:00:00 NR 13.3000 -102.300 PROVISIONAL 465 454 O_____________ nhc_working_bt EP042020 13.3000 -102.300 DB 25 1007 -3 1008 200 90 15 297
2020179N12261 2020 34 EP MM NOT_NAMED 2020-06-27 15:00:00 NR 13.6424 -103.008 PROVISIONAL 461 451 P_____________ EP042020 13.6424 -103.008 DB 25 1007 -3 1008 200 90 15 297
2020179N12261 2020 34 EP MM NOT_NAMED 2020-06-27 18:00:00 NR 14.0000 -103.700 PROVISIONAL 461 440 O_____________ nhc_working_bt EP042020 14.0000 -103.700 DB 25 1007 -3 1008 200 90 15 300
2020179N12261 2020 34 EP MM NOT_NAMED 2020-06-27 21:00:00 NR 14.3998 -104.358 PROVISIONAL 443 419 P_____________ EP042020 14.3998 -104.358 DB 25 1006 -3 1008 200 75 15 302
2020179N12261 2020 34 EP MM NOT_NAMED 2020-06-28 00:00:00 NR 14.8000 -105.000 PROVISIONAL 423 416 O_____________ nhc_working_bt EP042020 14.8000 -105.000 DB 25 1006 -3 1008 200 60 15 300
2020179N12261 2020 34 EP MM NOT_NAMED 2020-06-28 03:00:00 NR 15.1424 -105.665 PROVISIONAL 427 418 P_____________ EP042020 15.1424 -105.665 DB 25 1006 -3 1008 200 60 14 299
2020179N12261 2020 34 EP MM NOT_NAMED 2020-06-28 06:00:00 NR 15.5000 -106.300 PROVISIONAL 432 425 O_____________ nhc_working_bt EP042020 15.5000 -106.300 DB 25 1006 -3 1008 200 60 14 304
2020179N12261 2020 34 EP MM NOT_NAMED 2020-06-28 09:00:00 NR 15.9273 -106.880 PROVISIONAL 431 414 P_____________ EP042020 15.9274 -106.880 DB 25 1006 -3 1008 200 60 14 310
2020179N12261 2020 34 EP MM NOT_NAMED 2020-06-28 12:00:00 NR 16.4000 -107.400 PROVISIONAL 417 407 O_____________ nhc_working_bt EP042020 16.4000 -107.400 DB 25 1006 -3 1008 200 60 14 316
2020179N12261 2020 34 EP MM NOT_NAMED 2020-06-28 15:00:00 NR 16.9072 -107.850 PROVISIONAL 414 406 P_____________ EP042020 16.9072 -107.850 DB 25 1006 -3 1008 200 60 13 319
2020179N12261 2020 34 EP MM NOT_NAMED 2020-06-28 18:00:00 NR 17.4000 -108.300 PROVISIONAL 407 407 O_____________ nhc_working_bt EP042020 17.4000 -108.300 DB 25 1006 -3 1008 200 60 13 314
2020179N12261 2020 34 EP MM NOT_NAMED 2020-06-28 21:00:00 NR 17.8224 -108.828 PROVISIONAL 425 425 P_____________ EP042020 17.8224 -108.828 DB 25 1005 -3 1008 200 60 13 307
2020179N12261 2020 34 EP MM NOT_NAMED 2020-06-29 00:00:00 NR 18.2000 -109.400 PROVISIONAL 456 456 O_____________ nhc_working_bt EP042020 18.2000 -109.400 DB 25 1005 -3 1008 200 60 35 13 304
2020179N12261 2020 34 EP MM NOT_NAMED 2020-06-29 03:00:00 NR 18.5649 -110.000 PROVISIONAL 480 450 P_____________ EP042020 18.5649 -110.000 DB 25 1005 -3 1008 200 60 13 302
2020179N12261 2020 34 EP MM NOT_NAMED 2020-06-29 06:00:00 NR 18.9000 -110.600 PROVISIONAL 451 429 O_____________ nhc_working_bt EP042020 18.9000 -110.600 DB 25 1005 -3 1008 200 60 35 13 300
2020179N12261 2020 34 EP MM NOT_NAMED 2020-06-29 09:00:00 NR 19.2226 -111.210 PROVISIONAL 432 414 P_____________ EP042020 19.2226 -111.210 DB 25 1005 -3 1008 200 60 12 300
2020179N12261 2020 34 EP MM NOT_NAMED 2020-06-29 12:00:00 DS 19.5000 -111.700 PROVISIONAL 419 408 O_____________ nhc_working_bt EP042020 19.5000 -111.700 LO 25 1005 -3 1008 200 60 9 305
2020179N12261 2020 34 EP MM NOT_NAMED 2020-06-29 15:00:00 DS 19.7147 -111.953 PROVISIONAL 413 399 P_____________ EP042020 19.7147 -111.953 LO 27 1004 -3 1008 200 60 6 317
2020179N12261 2020 34 EP MM NOT_NAMED 2020-06-29 18:00:00 DS 19.9000 -112.100 PROVISIONAL 399 387 O_____________ nhc_working_bt EP042020 19.9000 -112.100 LO 30 1004 -3 1008 200 60 40 5 320
2020179N12261 2020 34 EP MM NOT_NAMED 2020-06-29 21:00:00 DS 20.1150 -112.307 PROVISIONAL 393 382 P_____________ EP042020 20.1150 -112.307 LO 30 1004 -3 1008 200 60 6 319
2020179N12261 2020 34 EP MM NOT_NAMED 2020-06-30 00:00:00 TS 20.3333 -112.500 PROVISIONAL 388 380 O_____________ nhc_working_bt EP042020 20.3000 -112.500 TD 30 1004 -1 1008 200 60 40 5 310
2020179N12261 2020 34 EP MM NOT_NAMED 2020-06-30 03:00:00 TS 20.4351 -112.710 PROVISIONAL 394 394 P_____________ EP042020 20.4150 -112.680 TD 27 1004 -1 1008 200 60 4 296
2020179N12261 2020 34 EP MM NOT_NAMED 2020-06-30 06:00:00 TS 20.5000 -112.860 PROVISIONAL 402 394 O_____________ nhc_working_bt EP042020 20.5000 -112.800 TD 25 1005 -1 1008 200 60 35 2 306
2020179N12261 2020 34 EP MM NOT_NAMED 2020-06-30 09:00:00 TS 20.5566 -112.892 PROVISIONAL 394 394 P_____________ EP042020 20.6000 -112.815 TD 25 1005 -1 1008 200 60 1 0
2020179N12261 2020 34 EP MM NOT_NAMED 2020-06-30 12:00:00 TS 20.6333 -112.867 PROVISIONAL 394 387 O_____________ nhc_working_bt EP042020 20.7000 -112.800 TD 25 1005 -1 1008 200 60 35 2 6
2020179N12261 2020 34 EP MM NOT_NAMED 2020-06-30 15:00:00 TS 20.7533 -112.871 PROVISIONAL 380 373 P_____________ EP042020 20.8000 -112.832 TD 25 1005 -1 1008 200 60 3 354
2020179N12261 2020 34 EP MM NOT_NAMED 2020-06-30 18:00:00 DS 20.9000 -112.900 PROVISIONAL 373 O_____________ nhc_working_bt EP042020 20.9000 -112.900 LO 25 1005 -3 1008 200 60 35 3 352

About IBTrACS Database

This database is a web-friendly format of International Best Track Archive for Climate Stewardship (IBTrACS), a global best track data archive curated by NOAA dating back to 1842.

Updated: 2021-10-08